Terminal Aerodrome Forecast
Issued by NWS Melbourne, FL

Home | Current Version | Previous Version | Text Only | Print | Product List | Glossary On
Versions: 1 2 3 4 5 6 7 8 9 10 11 12 13 14 15 16 17 18 19 20 21 22 23 24 25 26 27 28 29 30 31 32
000
FTUS42 KMLB 240900 AAB
TAFMCO
TAF AMD
KMCO 240917Z 2409/2506 18010KT P6SM OVC007
      TEMPO 2411/2413 OVC005
     FM241400 20010KT P6SM BKN015
     FM241700 21012KT P6SM BKN035
     FM250100 19004KT P6SM SCT040 BKN250=

USA.gov is the U.S. government's official web portal to all federal, state and local government web resources and services.